Spokane, WA

6:14 AM PDT on March 28, 2015 (GMT -0700)
Hayford | | Change Station
CLOSE
Current Station
Personal Weather Station
Location: Cheney, WA
Elevation: 2441 ft
Nearby Weather Stations

Elev 2441 ft 47.58 °N, 117.54 °W | Updated 3 minutes ago

Scattered Clouds
Scattered Clouds
43.2 °F
Feels Like 40 °F
N
5.3
Wind Variable Wind from NE

Today
High -- | Low -- °F
--% Chance of Precip.
Yesterday
High -- | Low -- °F
Precip. -- in
6:37 AM 7:14 PM
Waxing Gibbous, 62% visible
Pressure 29.93 in
Visibility 10.0 miles
Clouds Scattered Clouds 13000 ft
Scattered Clouds 15000 ft
Windchill 40 °F
Dew Point 38 °F
Humidity 81%
Rainfall 0.40 in
Snow Depth Not available.
UV 0 out of 12
Pollen 7.70 out of 12
Air Quality Not available.
Flu Activity Not available.
METAR KSKA 281258Z AUTO 21019G30KT 10SM SCT130 SCT150 06/02 A2992 RMK AO2 PK WND 21034/43 RAE06DZB06E12RAB12E39 PRESRR SLP133 P0000 T00590024 21034

More Conditions Fewer Conditions

Pressure 29.93 in
Visibility 10.0 miles
Clouds Scattered Clouds 13000 ft
Scattered Clouds 15000 ft
Windchill 40 °F
Dew Point 38 °F
Humidity 81%
Rainfall 0.40 in
Snow Depth Not available.
UV 0 out of 12
Pollen 7.70 out of 12
Air Quality Not available.
Flu Activity Not available.
METAR KSKA 281258Z AUTO 21019G30KT 10SM SCT130 SCT150 06/02 A2992 RMK AO2 PK WND 21034/43 RAE06DZB06E12RAB12E39 PRESRR SLP133 P0000 T00590024 21034

More Conditions Fewer Conditions

10-Day Weather Forecast

Almanac

Astronomy

Mar. 28, 2015 Rise Set
Actual Time
Civil Twilight
Nautical Twilight
Astronomical Twilight
Moon
Length of Visible Light
Length of Day
Tomorrow will be .
, % of the Moon is Illuminated

Today's Extremes

State Highs State Lows

Community

WunderPhotos

Upload Photos

1,808,968 photos uploaded!

WunderBlogs® & News

Nearby

Air Quality

  Air Quality AQ Index Pollutant
Not available.

Snow Depth

Station Depth Elevation

Earthquake Activity

City Distance Mag. Time & Date
Minimum magnitude displayed is 2.5.

Coastal Water Temperatures

Place Temperature

Stations

Nearby Weather Stations

Station Location Temp. Windchill Dew Point Humidity Wind Precip. Elev Updated Type